sensor_id;sensor_type;location;lat;lon;timestamp;temperature;humidity
43087;DHT22;28708;52.224;6.924;2023-04-01T00:01:59;9.80;99.90
43087;DHT22;28708;52.224;6.924;2023-04-01T00:04:25;9.70;99.90
43087;DHT22;28708;52.224;6.924;2023-04-01T00:06:50;9.70;99.90
43087;DHT22;28708;52.224;6.924;2023-04-01T00:09:17;9.80;99.90
43087;DHT22;28708;52.224;6.924;2023-04-01T00:11:43;9.80;99.90
43087;DHT22;28708;52.224;6.924;2023-04-01T00:14:12;9.80;99.90
43087;DHT22;28708;52.224;6.924;2023-04-01T00:16:38;9.80;99.90
43087;DHT22;28708;52.224;6.924;2023-04-01T00:19:04;9.70;99.90
43087;DHT22;28708;52.224;6.924;2023-04-01T00:21:30;9.70;99.90
43087;DHT22;28708;52.224;6.924;2023-04-01T00:23:55;9.80;99.90
43087;DHT22;28708;52.224;6.924;2023-04-01T00:26:21;9.70;99.90
43087;DHT22;28708;52.224;6.924;2023-04-01T00:28:48;9.70;99.90
43087;DHT22;28708;52.224;6.924;2023-04-01T00:31:14;9.70;99.90
43087;DHT22;28708;52.224;6.924;2023-04-01T00:33:40;9.70;99.90
43087;DHT22;28708;52.224;6.924;2023-04-01T00:36:15;9.70;99.90
43087;DHT22;28708;52.224;6.924;2023-04-01T00:38:42;9.80;99.90
43087;DHT22;28708;52.224;6.924;2023-04-01T00:41:09;9.70;99.90
43087;DHT22;28708;52.224;6.924;2023-04-01T00:43:41;9.70;99.90
43087;DHT22;28708;52.224;6.924;2023-04-01T00:46:07;9.70;99.90
43087;DHT22;28708;52.224;6.924;2023-04-01T00:48:42;9.70;99.90
43087;DHT22;28708;52.224;6.924;2023-04-01T00:51:11;9.70;99.90
43087;DHT22;28708;52.224;6.924;2023-04-01T00:53:43;9.70;99.90
43087;DHT22;28708;52.224;6.924;2023-04-01T00:56:15;9.60;99.90
43087;DHT22;28708;52.224;6.924;2023-04-01T00:58:47;9.70;99.90
43087;DHT22;28708;52.224;6.924;2023-04-01T01:01:15;9.60;99.90
43087;DHT22;28708;52.224;6.924;2023-04-01T01:03:40;9.60;99.90
43087;DHT22;28708;52.224;6.924;2023-04-01T01:06:20;9.70;99.90
43087;DHT22;28708;52.224;6.924;2023-04-01T01:17:58;9.60;99.90
43087;DHT22;28708;52.224;6.924;2023-04-01T01:27:49;9.60;99.90
43087;DHT22;28708;52.224;6.924;2023-04-01T01:35:56;9.60;99.90
43087;DHT22;28708;52.224;6.924;2023-04-01T01:38:26;9.70;99.90
43087;DHT22;28708;52.224;6.924;2023-04-01T01:41:03;9.70;99.90
43087;DHT22;28708;52.224;6.924;2023-04-01T01:43:33;9.60;99.90
43087;DHT22;28708;52.224;6.924;2023-04-01T01:46:05;9.60;99.90
43087;DHT22;28708;52.224;6.924;2023-04-01T01:48:34;9.50;99.90
43087;DHT22;28708;52.224;6.924;2023-04-01T01:51:01;9.50;99.90
43087;DHT22;28708;52.224;6.924;2023-04-01T01:53:26;9.50;99.90
43087;DHT22;28708;52.224;6.924;2023-04-01T01:55:52;9.50;99.90
43087;DHT22;28708;52.224;6.924;2023-04-01T01:58:35;9.50;99.90
43087;DHT22;28708;52.224;6.924;2023-04-01T02:01:11;9.50;99.90
43087;DHT22;28708;52.224;6.924;2023-04-01T02:03:39;9.60;99.90
43087;DHT22;28708;52.224;6.924;2023-04-01T02:06:08;9.60;99.90
43087;DHT22;28708;52.224;6.924;2023-04-01T02:08:55;9.60;99.90
43087;DHT22;28708;52.224;6.924;2023-04-01T02:11:32;9.50;99.90
43087;DHT22;28708;52.224;6.924;2023-04-01T02:14:18;9.50;99.90
43087;DHT22;28708;52.224;6.924;2023-04-01T02:17:05;9.50;99.90
43087;DHT22;28708;52.224;6.924;2023-04-01T02:19:36;9.50;99.90
43087;DHT22;28708;52.224;6.924;2023-04-01T02:22:07;9.50;99.90
43087;DHT22;28708;52.224;6.924;2023-04-01T02:24:35;9.40;99.90
43087;DHT22;28708;52.224;6.924;2023-04-01T02:27:03;9.50;99.90
43087;DHT22;28708;52.224;6.924;2023-04-01T02:29:30;9.50;99.90
43087;DHT22;28708;52.224;6.924;2023-04-01T02:31:56;9.50;99.90
43087;DHT22;28708;52.224;6.924;2023-04-01T02:34:23;9.50;99.90
43087;DHT22;28708;52.224;6.924;2023-04-01T02:36:50;9.50;99.90
43087;DHT22;28708;52.224;6.924;2023-04-01T02:39:16;9.50;99.90
43087;DHT22;28708;52.224;6.924;2023-04-01T02:41:44;9.50;99.90
43087;DHT22;28708;52.224;6.924;2023-04-01T02:44:12;9.50;99.90
43087;DHT22;28708;52.224;6.924;2023-04-01T02:46:38;9.50;99.90
43087;DHT22;28708;52.224;6.924;2023-04-01T02:49:04;9.50;99.90
43087;DHT22;28708;52.224;6.924;2023-04-01T02:51:30;9.50;99.90
43087;DHT22;28708;52.224;6.924;2023-04-01T02:53:56;9.50;99.90
43087;DHT22;28708;52.224;6.924;2023-04-01T02:56:21;9.50;99.90
43087;DHT22;28708;52.224;6.924;2023-04-01T02:58:47;9.50;99.90
43087;DHT22;28708;52.224;6.924;2023-04-01T03:01:13;9.50;99.90
43087;DHT22;28708;52.224;6.924;2023-04-01T03:03:39;9.50;99.90
43087;DHT22;28708;52.224;6.924;2023-04-01T03:06:10;9.50;99.90
43087;DHT22;28708;52.224;6.924;2023-04-01T03:08:37;9.50;99.90
43087;DHT22;28708;52.224;6.924;2023-04-01T03:11:03;9.50;99.90
43087;DHT22;28708;52.224;6.924;2023-04-01T03:13:30;9.50;99.90
43087;DHT22;28708;52.224;6.924;2023-04-01T03:15:56;9.50;99.90
43087;DHT22;28708;52.224;6.924;2023-04-01T03:18:21;9.50;99.90
43087;DHT22;28708;52.224;6.924;2023-04-01T03:20:47;9.50;99.90
43087;DHT22;28708;52.224;6.924;2023-04-01T03:23:13;9.60;99.90
43087;DHT22;28708;52.224;6.924;2023-04-01T03:25:39;9.60;99.90
43087;DHT22;28708;52.224;6.924;2023-04-01T03:28:04;9.60;99.90
43087;DHT22;28708;52.224;6.924;2023-04-01T03:30:30;9.60;99.90
43087;DHT22;28708;52.224;6.924;2023-04-01T03:32:57;9.60;99.90
43087;DHT22;28708;52.224;6.924;2023-04-01T03:35:24;9.50;99.90
43087;DHT22;28708;52.224;6.924;2023-04-01T03:37:53;9.50;99.90
43087;DHT22;28708;52.224;6.924;2023-04-01T03:40:20;9.50;99.90
43087;DHT22;28708;52.224;6.924;2023-04-01T03:42:46;9.50;99.90
43087;DHT22;28708;52.224;6.924;2023-04-01T03:45:12;9.50;99.90
43087;DHT22;28708;52.224;6.924;2023-04-01T03:47:39;9.50;99.90
43087;DHT22;28708;52.224;6.924;2023-04-01T03:50:06;9.50;99.90
43087;DHT22;28708;52.224;6.924;2023-04-01T03:52:33;9.60;99.90
43087;DHT22;28708;52.224;6.924;2023-04-01T03:54:59;9.50;99.90
43087;DHT22;28708;52.224;6.924;2023-04-01T03:57:24;9.50;99.90
43087;DHT22;28708;52.224;6.924;2023-04-01T03:59:51;9.50;99.90
43087;DHT22;28708;52.224;6.924;2023-04-01T04:02:17;9.60;99.90
43087;DHT22;28708;52.224;6.924;2023-04-01T04:04:43;9.60;99.90
43087;DHT22;28708;52.224;6.924;2023-04-01T04:07:10;9.60;99.90
43087;DHT22;28708;52.224;6.924;2023-04-01T04:09:57;9.60;99.90
43087;DHT22;28708;52.224;6.924;2023-04-01T04:12:23;9.50;99.90
43087;DHT22;28708;52.224;6.924;2023-04-01T04:14:49;9.50;99.90
43087;DHT22;28708;52.224;6.924;2023-04-01T04:17:14;9.50;99.90
43087;DHT22;28708;52.224;6.924;2023-04-01T04:19:42;9.50;99.90
43087;DHT22;28708;52.224;6.924;2023-04-01T04:22:08;9.60;99.90
43087;DHT22;28708;52.224;6.924;2023-04-01T04:24:35;9.50;99.90
43087;DHT22;28708;52.224;6.924;2023-04-01T04:27:06;9.50;99.90
43087;DHT22;28708;52.224;6.924;2023-04-01T04:29:33;9.60;99.90
43087;DHT22;28708;52.224;6.924;2023-04-01T04:32:00;9.60;99.90
43087;DHT22;28708;52.224;6.924;2023-04-01T04:34:26;9.60;99.90
43087;DHT22;28708;52.224;6.924;2023-04-01T04:36:51;9.60;99.90
43087;DHT22;28708;52.224;6.924;2023-04-01T04:39:18;9.60;99.90
43087;DHT22;28708;52.224;6.924;2023-04-01T04:41:44;9.60;99.90
43087;DHT22;28708;52.224;6.924;2023-04-01T04:44:10;9.60;99.90
43087;DHT22;28708;52.224;6.924;2023-04-01T04:46:36;9.60;99.90
43087;DHT22;28708;52.224;6.924;2023-04-01T04:49:11;9.60;99.90
43087;DHT22;28708;52.224;6.924;2023-04-01T04:51:36;9.60;99.90
43087;DHT22;28708;52.224;6.924;2023-04-01T04:54:03;9.60;99.90
43087;DHT22;28708;52.224;6.924;2023-04-01T04:56:52;9.60;99.90
43087;DHT22;28708;52.224;6.924;2023-04-01T04:59:18;9.60;99.90
43087;DHT22;28708;52.224;6.924;2023-04-01T05:01:54;9.60;99.90
43087;DHT22;28708;52.224;6.924;2023-04-01T05:04:20;9.50;99.90
43087;DHT22;28708;52.224;6.924;2023-04-01T05:06:46;9.60;99.90
43087;DHT22;28708;52.224;6.924;2023-04-01T05:09:11;9.50;99.90
43087;DHT22;28708;52.224;6.924;2023-04-01T05:11:37;9.50;99.90
43087;DHT22;28708;52.224;6.924;2023-04-01T05:14:06;9.50;99.90
43087;DHT22;28708;52.224;6.924;2023-04-01T05:16:35;9.50;99.90
43087;DHT22;28708;52.224;6.924;2023-04-01T05:19:03;9.50;99.90
43087;DHT22;28708;52.224;6.924;2023-04-01T05:21:29;9.50;99.90
43087;DHT22;28708;52.224;6.924;2023-04-01T05:23:56;9.50;99.90
43087;DHT22;28708;52.224;6.924;2023-04-01T05:26:23;9.50;99.90
43087;DHT22;28708;52.224;6.924;2023-04-01T05:28:52;9.50;99.90
43087;DHT22;28708;52.224;6.924;2023-04-01T05:31:18;9.60;99.90
43087;DHT22;28708;52.224;6.924;2023-04-01T05:33:46;9.60;99.90
43087;DHT22;28708;52.224;6.924;2023-04-01T05:36:16;9.60;99.90
43087;DHT22;28708;52.224;6.924;2023-04-01T05:38:42;9.60;99.90
43087;DHT22;28708;52.224;6.924;2023-04-01T05:41:20;9.50;99.90
43087;DHT22;28708;52.224;6.924;2023-04-01T05:43:45;9.50;99.90
43087;DHT22;28708;52.224;6.924;2023-04-01T05:46:43;9.50;99.90
43087;DHT22;28708;52.224;6.924;2023-04-01T05:49:15;9.50;99.90
43087;DHT22;28708;52.224;6.924;2023-04-01T05:51:41;9.50;99.90
43087;DHT22;28708;52.224;6.924;2023-04-01T05:54:08;9.50;99.90
43087;DHT22;28708;52.224;6.924;2023-04-01T05:56:33;9.60;99.90
43087;DHT22;28708;52.224;6.924;2023-04-01T05:58:59;9.60;99.90
43087;DHT22;28708;52.224;6.924;2023-04-01T06:01:25;9.60;99.90
43087;DHT22;28708;52.224;6.924;2023-04-01T06:03:50;9.60;99.90
43087;DHT22;28708;52.224;6.924;2023-04-01T06:06:24;9.60;99.90
43087;DHT22;28708;52.224;6.924;2023-04-01T06:08:52;9.60;99.90
43087;DHT22;28708;52.224;6.924;2023-04-01T06:14:26;9.60;99.90
43087;DHT22;28708;52.224;6.924;2023-04-01T06:19:49;9.60;99.90
43087;DHT22;28708;52.224;6.924;2023-04-01T06:30:47;9.70;99.90
43087;DHT22;28708;52.224;6.924;2023-04-01T06:39:46;9.80;99.90
43087;DHT22;28708;52.224;6.924;2023-04-01T06:48:29;9.80;99.90
43087;DHT22;28708;52.224;6.924;2023-04-01T06:51:37;9.90;99.90
43087;DHT22;28708;52.224;6.924;2023-04-01T06:54:32;9.80;99.90
43087;DHT22;28708;52.224;6.924;2023-04-01T06:57:46;9.90;99.90
43087;DHT22;28708;52.224;6.924;2023-04-01T07:00:31;10.00;99.90
43087;DHT22;28708;52.224;6.924;2023-04-01T07:05:30;9.90;99.90
43087;DHT22;28708;52.224;6.924;2023-04-01T07:07:57;10.00;99.90
43087;DHT22;28708;52.224;6.924;2023-04-01T07:13:28;10.10;99.90
43087;DHT22;28708;52.224;6.924;2023-04-01T07:19:03;10.10;99.90
43087;DHT22;28708;52.224;6.924;2023-04-01T07:22:09;10.10;99.90
43087;DHT22;28708;52.224;6.924;2023-04-01T07:25:17;10.10;99.90
43087;DHT22;28708;52.224;6.924;2023-04-01T07:27:51;10.20;99.90
43087;DHT22;28708;52.224;6.924;2023-04-01T07:30:22;10.30;99.90
43087;DHT22;28708;52.224;6.924;2023-04-01T07:33:14;10.30;99.90
43087;DHT22;28708;52.224;6.924;2023-04-01T07:36:21;10.30;99.90
43087;DHT22;28708;52.224;6.924;2023-04-01T07:39:33;10.40;99.90
43087;DHT22;28708;52.224;6.924;2023-04-01T07:45:09;10.50;99.90
43087;DHT22;28708;52.224;6.924;2023-04-01T07:47:49;10.50;99.90
43087;DHT22;28708;52.224;6.924;2023-04-01T07:52:57;10.40;99.90
43087;DHT22;28708;52.224;6.924;2023-04-01T07:55:39;10.60;99.90
43087;DHT22;28708;52.224;6.924;2023-04-01T08:01:35;10.70;99.90
43087;DHT22;28708;52.224;6.924;2023-04-01T08:04:18;10.70;99.90
43087;DHT22;28708;52.224;6.924;2023-04-01T08:06:59;10.70;99.90
43087;DHT22;28708;52.224;6.924;2023-04-01T08:09:55;10.60;99.90
43087;DHT22;28708;52.224;6.924;2023-04-01T08:13:47;10.50;99.90
43087;DHT22;28708;52.224;6.924;2023-04-01T08:22:11;10.60;99.90
43087;DHT22;28708;52.224;6.924;2023-04-01T08:24:45;10.60;99.90
43087;DHT22;28708;52.224;6.924;2023-04-01T08:29:51;10.80;99.90
43087;DHT22;28708;52.224;6.924;2023-04-01T08:32:24;10.80;99.90
43087;DHT22;28708;52.224;6.924;2023-04-01T08:35:37;11.00;99.90
43087;DHT22;28708;52.224;6.924;2023-04-01T08:37:45;11.30;99.90
43087;DHT22;28708;52.224;6.924;2023-04-01T08:43:15;11.50;99.90
43087;DHT22;28708;52.224;6.924;2023-04-01T08:45:48;11.70;99.90
43087;DHT22;28708;52.224;6.924;2023-04-01T09:02:22;12.30;99.90
43087;DHT22;28708;52.224;6.924;2023-04-01T09:08:08;12.40;99.90
43087;DHT22;28708;52.224;6.924;2023-04-01T09:16:58;12.20;99.90
43087;DHT22;28708;52.224;6.924;2023-04-01T09:24:56;12.40;99.90
43087;DHT22;28708;52.224;6.924;2023-04-01T09:35:48;12.60;99.90
43087;DHT22;28708;52.224;6.924;2023-04-01T09:38:29;12.70;99.90
43087;DHT22;28708;52.224;6.924;2023-04-01T09:40:56;13.10;99.90
43087;DHT22;28708;52.224;6.924;2023-04-01T09:44:04;13.30;99.90
43087;DHT22;28708;52.224;6.924;2023-04-01T10:41:12;13.10;99.90
43087;DHT22;28708;52.224;6.924;2023-04-01T10:49:48;13.70;99.90
43087;DHT22;28708;52.224;6.924;2023-04-01T10:52:51;13.50;99.90
43087;DHT22;28708;52.224;6.924;2023-04-01T11:03:29;12.50;99.90
43087;DHT22;28708;52.224;6.924;2023-04-01T11:09:47;12.20;99.90
43087;DHT22;28708;52.224;6.924;2023-04-01T11:22:33;12.50;99.90
43087;DHT22;28708;52.224;6.924;2023-04-01T11:25:22;12.70;99.90
43087;DHT22;28708;52.224;6.924;2023-04-01T11:28:33;12.90;99.90
43087;DHT22;28708;52.224;6.924;2023-04-01T11:34:21;13.30;99.90
43087;DHT22;28708;52.224;6.924;2023-04-01T11:37:19;13.20;99.90
43087;DHT22;28708;52.224;6.924;2023-04-01T11:40:42;13.00;99.90
43087;DHT22;28708;52.224;6.924;2023-04-01T11:46:46;12.80;99.90
43087;DHT22;28708;52.224;6.924;2023-04-01T11:55:34;13.00;99.90
43087;DHT22;28708;52.224;6.924;2023-04-01T12:00:59;12.80;99.90
43087;DHT22;28708;52.224;6.924;2023-04-01T12:03:54;12.80;99.90
43087;DHT22;28708;52.224;6.924;2023-04-01T12:17:47;12.90;99.90
43087;DHT22;28708;52.224;6.924;2023-04-01T12:20:38;12.50;99.90
43087;DHT22;28708;52.224;6.924;2023-04-01T12:28:29;12.30;99.90
43087;DHT22;28708;52.224;6.924;2023-04-01T12:45:33;12.30;99.90
43087;DHT22;28708;52.224;6.924;2023-04-01T12:48:27;12.60;99.90
43087;DHT22;28708;52.224;6.924;2023-04-01T12:51:24;12.60;99.90
43087;DHT22;28708;52.224;6.924;2023-04-01T12:57:29;12.50;99.90
43087;DHT22;28708;52.224;6.924;2023-04-01T13:00:09;12.60;99.90
43087;DHT22;28708;52.224;6.924;2023-04-01T13:02:49;12.50;99.90
43087;DHT22;28708;52.224;6.924;2023-04-01T13:05:44;12.40;99.90
43087;DHT22;28708;52.224;6.924;2023-04-01T13:11:09;12.50;99.90
43087;DHT22;28708;52.224;6.924;2023-04-01T13:13:50;12.60;99.90
43087;DHT22;28708;52.224;6.924;2023-04-01T13:16:25;12.60;99.90
43087;DHT22;28708;52.224;6.924;2023-04-01T13:21:54;12.50;99.90
43087;DHT22;28708;52.224;6.924;2023-04-01T13:24:36;12.60;99.90
43087;DHT22;28708;52.224;6.924;2023-04-01T13:27:32;12.60;99.90
43087;DHT22;28708;52.224;6.924;2023-04-01T13:41:49;12.50;99.90
43087;DHT22;28708;52.224;6.924;2023-04-01T13:44:42;12.40;99.90
43087;DHT22;28708;52.224;6.924;2023-04-01T13:47:26;12.30;99.90
43087;DHT22;28708;52.224;6.924;2023-04-01T13:50:15;12.40;99.90
43087;DHT22;28708;52.224;6.924;2023-04-01T13:52:58;12.40;99.90
43087;DHT22;28708;52.224;6.924;2023-04-01T13:55:44;12.30;99.90
43087;DHT22;28708;52.224;6.924;2023-04-01T13:58:31;12.20;99.90
43087;DHT22;28708;52.224;6.924;2023-04-01T14:01:18;12.20;99.90
43087;DHT22;28708;52.224;6.924;2023-04-01T14:04:02;12.20;99.90
43087;DHT22;28708;52.224;6.924;2023-04-01T14:09:56;12.30;99.90
43087;DHT22;28708;52.224;6.924;2023-04-01T14:15:29;12.30;99.90
43087;DHT22;28708;52.224;6.924;2023-04-01T14:29:16;12.30;99.90
43087;DHT22;28708;52.224;6.924;2023-04-01T14:32:12;12.30;99.90
43087;DHT22;28708;52.224;6.924;2023-04-01T14:34:55;12.30;99.90
43087;DHT22;28708;52.224;6.924;2023-04-01T14:38:25;12.20;99.90
43087;DHT22;28708;52.224;6.924;2023-04-01T14:46:41;12.00;99.90
43087;DHT22;28708;52.224;6.924;2023-04-01T14:49:48;11.80;99.90
43087;DHT22;28708;52.224;6.924;2023-04-01T14:52:28;11.40;99.90
43087;DHT22;28708;52.224;6.924;2023-04-01T14:54:56;11.10;99.90
43087;DHT22;28708;52.224;6.924;2023-04-01T14:57:27;11.00;99.90
43087;DHT22;28708;52.224;6.924;2023-04-01T15:00:00;11.00;99.90
43087;DHT22;28708;52.224;6.924;2023-04-01T15:05:18;11.20;99.90
43087;DHT22;28708;52.224;6.924;2023-04-01T15:08:49;11.40;99.90
43087;DHT22;28708;52.224;6.924;2023-04-01T15:24:26;11.60;99.90
43087;DHT22;28708;52.224;6.924;2023-04-01T15:32:50;11.40;99.90
43087;DHT22;28708;52.224;6.924;2023-04-01T15:40:49;10.90;99.90
43087;DHT22;28708;52.224;6.924;2023-04-01T15:51:20;10.50;99.90
43087;DHT22;28708;52.224;6.924;2023-04-01T15:57:14;10.50;99.90
43087;DHT22;28708;52.224;6.924;2023-04-01T16:05:37;10.40;99.90
43087;DHT22;28708;52.224;6.924;2023-04-01T16:11:11;10.40;99.90
43087;DHT22;28708;52.224;6.924;2023-04-01T16:13:54;10.40;99.90
43087;DHT22;28708;52.224;6.924;2023-04-01T16:19:19;10.40;99.90
43087;DHT22;28708;52.224;6.924;2023-04-01T16:24:23;10.30;99.90
43087;DHT22;28708;52.224;6.924;2023-04-01T16:26:55;10.30;99.90
43087;DHT22;28708;52.224;6.924;2023-04-01T16:29:31;10.30;99.90
43087;DHT22;28708;52.224;6.924;2023-04-01T16:32:21;10.20;99.90
43087;DHT22;28708;52.224;6.924;2023-04-01T16:35:28;10.10;99.90
43087;DHT22;28708;52.224;6.924;2023-04-01T16:43:28;10.00;99.90
43087;DHT22;28708;52.224;6.924;2023-04-01T16:46:20;10.00;99.90
43087;DHT22;28708;52.224;6.924;2023-04-01T16:54:42;9.70;99.90
43087;DHT22;28708;52.224;6.924;2023-04-01T16:59:38;9.70;99.90
43087;DHT22;28708;52.224;6.924;2023-04-01T17:10:25;9.60;99.90
43087;DHT22;28708;52.224;6.924;2023-04-01T17:13:55;9.60;99.90
43087;DHT22;28708;52.224;6.924;2023-04-01T17:16:30;9.50;99.90
43087;DHT22;28708;52.224;6.924;2023-04-01T17:35:57;9.30;99.90
43087;DHT22;28708;52.224;6.924;2023-04-01T17:38:56;9.30;99.90
43087;DHT22;28708;52.224;6.924;2023-04-01T17:41:28;9.30;99.90
43087;DHT22;28708;52.224;6.924;2023-04-01T17:47:01;9.20;99.90
43087;DHT22;28708;52.224;6.924;2023-04-01T17:49:39;9.10;99.90
43087;DHT22;28708;52.224;6.924;2023-04-01T17:52:30;9.10;99.90
43087;DHT22;28708;52.224;6.924;2023-04-01T17:55:28;9.10;99.90
43087;DHT22;28708;52.224;6.924;2023-04-01T17:58:03;9.10;99.90
43087;DHT22;28708;52.224;6.924;2023-04-01T18:06:29;9.00;99.90
43087;DHT22;28708;52.224;6.924;2023-04-01T18:12:33;9.00;99.90
43087;DHT22;28708;52.224;6.924;2023-04-01T18:15:08;9.00;99.90
43087;DHT22;28708;52.224;6.924;2023-04-01T18:23:35;8.80;99.90
43087;DHT22;28708;52.224;6.924;2023-04-01T18:26:12;8.70;99.90
43087;DHT22;28708;52.224;6.924;2023-04-01T18:28:43;8.70;99.90
43087;DHT22;28708;52.224;6.924;2023-04-01T18:31:18;8.70;99.90
43087;DHT22;28708;52.224;6.924;2023-04-01T18:34:19;8.60;99.90
43087;DHT22;28708;52.224;6.924;2023-04-01T18:36:55;8.60;99.90
43087;DHT22;28708;52.224;6.924;2023-04-01T18:39:30;8.60;99.90
43087;DHT22;28708;52.224;6.924;2023-04-01T18:45:34;8.60;99.90
43087;DHT22;28708;52.224;6.924;2023-04-01T18:48:13;8.60;99.90
43087;DHT22;28708;52.224;6.924;2023-04-01T18:50:54;8.60;99.90
43087;DHT22;28708;52.224;6.924;2023-04-01T18:53:45;8.60;99.90
43087;DHT22;28708;52.224;6.924;2023-04-01T18:56:26;8.50;99.90
43087;DHT22;28708;52.224;6.924;2023-04-01T18:59:22;8.50;99.90
43087;DHT22;28708;52.224;6.924;2023-04-01T19:02:17;8.50;99.90
43087;DHT22;28708;52.224;6.924;2023-04-01T19:05:07;8.50;99.90
43087;DHT22;28708;52.224;6.924;2023-04-01T19:13:21;8.40;99.90
43087;DHT22;28708;52.224;6.924;2023-04-01T19:19:20;8.20;99.90
43087;DHT22;28708;52.224;6.924;2023-04-01T19:24:32;8.20;99.90
43087;DHT22;28708;52.224;6.924;2023-04-01T19:29:58;8.20;99.90
43087;DHT22;28708;52.224;6.924;2023-04-01T19:35:25;8.10;99.90
43087;DHT22;28708;52.224;6.924;2023-04-01T19:38:01;8.00;99.90
43087;DHT22;28708;52.224;6.924;2023-04-01T19:40:48;8.00;99.90
43087;DHT22;28708;52.224;6.924;2023-04-01T19:46:52;8.00;99.90
43087;DHT22;28708;52.224;6.924;2023-04-01T19:52:40;7.90;99.90
43087;DHT22;28708;52.224;6.924;2023-04-01T19:57:48;7.90;99.90
43087;DHT22;28708;52.224;6.924;2023-04-01T20:00:36;7.80;99.90
43087;DHT22;28708;52.224;6.924;2023-04-01T20:03:07;7.80;99.90
43087;DHT22;28708;52.224;6.924;2023-04-01T20:10:44;7.70;99.90
43087;DHT22;28708;52.224;6.924;2023-04-01T20:13:28;7.60;99.90
43087;DHT22;28708;52.224;6.924;2023-04-01T20:16:08;7.60;99.90
43087;DHT22;28708;52.224;6.924;2023-04-01T20:18:55;7.60;99.90
43087;DHT22;28708;52.224;6.924;2023-04-01T20:21:35;7.60;99.90
43087;DHT22;28708;52.224;6.924;2023-04-01T20:24:20;7.60;99.90
43087;DHT22;28708;52.224;6.924;2023-04-01T20:32:34;7.50;99.90
43087;DHT22;28708;52.224;6.924;2023-04-01T20:37:56;7.50;99.90
43087;DHT22;28708;52.224;6.924;2023-04-01T20:40:33;7.50;99.90
43087;DHT22;28708;52.224;6.924;2023-04-01T20:46:07;7.50;99.90
43087;DHT22;28708;52.224;6.924;2023-04-01T20:51:23;7.50;99.90
43087;DHT22;28708;52.224;6.924;2023-04-01T20:56:48;7.50;99.90
43087;DHT22;28708;52.224;6.924;2023-04-01T20:59:47;7.50;99.90
43087;DHT22;28708;52.224;6.924;2023-04-01T21:18:55;7.40;99.90
43087;DHT22;28708;52.224;6.924;2023-04-01T21:26:54;7.30;99.90
43087;DHT22;28708;52.224;6.924;2023-04-01T21:29:33;7.40;99.90
43087;DHT22;28708;52.224;6.924;2023-04-01T21:32:24;7.30;99.90
43087;DHT22;28708;52.224;6.924;2023-04-01T21:35:44;7.20;99.90
43087;DHT22;28708;52.224;6.924;2023-04-01T21:40:53;7.20;99.90
43087;DHT22;28708;52.224;6.924;2023-04-01T21:43:53;7.30;99.90
43087;DHT22;28708;52.224;6.924;2023-04-01T21:49:32;7.10;99.90
43087;DHT22;28708;52.224;6.924;2023-04-01T21:55:13;7.10;99.90
43087;DHT22;28708;52.224;6.924;2023-04-01T21:57:56;7.10;99.90
43087;DHT22;28708;52.224;6.924;2023-04-01T22:00:32;7.20;99.90
43087;DHT22;28708;52.224;6.924;2023-04-01T22:08:52;7.10;99.90
43087;DHT22;28708;52.224;6.924;2023-04-01T22:22:22;7.00;99.90
43087;DHT22;28708;52.224;6.924;2023-04-01T22:25:12;6.90;99.90
43087;DHT22;28708;52.224;6.924;2023-04-01T22:30:23;6.80;99.90
43087;DHT22;28708;52.224;6.924;2023-04-01T22:33:05;6.80;99.90
43087;DHT22;28708;52.224;6.924;2023-04-01T22:36:46;6.70;99.90
43087;DHT22;28708;52.224;6.924;2023-04-01T22:39:05;6.70;99.90
43087;DHT22;28708;52.224;6.924;2023-04-01T22:44:00;6.60;99.90
43087;DHT22;28708;52.224;6.924;2023-04-01T22:46:38;6.60;99.90
43087;DHT22;28708;52.224;6.924;2023-04-01T22:49:17;6.60;99.90
43087;DHT22;28708;52.224;6.924;2023-04-01T22:54:42;6.60;99.90
43087;DHT22;28708;52.224;6.924;2023-04-01T22:57:28;6.60;99.90
43087;DHT22;28708;52.224;6.924;2023-04-01T23:00:15;6.50;99.90
43087;DHT22;28708;52.224;6.924;2023-04-01T23:03:00;6.60;99.90
43087;DHT22;28708;52.224;6.924;2023-04-01T23:05:28;6.60;99.90
43087;DHT22;28708;52.224;6.924;2023-04-01T23:10:59;6.40;99.90
43087;DHT22;28708;52.224;6.924;2023-04-01T23:13:29;6.40;99.90
43087;DHT22;28708;52.224;6.924;2023-04-01T23:15:57;6.40;99.90
43087;DHT22;28708;52.224;6.924;2023-04-01T23:18:56;6.20;99.90
43087;DHT22;28708;52.224;6.924;2023-04-01T23:21:45;6.20;99.90
43087;DHT22;28708;52.224;6.924;2023-04-01T23:27:08;6.20;99.90
43087;DHT22;28708;52.224;6.924;2023-04-01T23:29:37;6.30;99.90
43087;DHT22;28708;52.224;6.924;2023-04-01T23:32:12;6.20;99.90
43087;DHT22;28708;52.224;6.924;2023-04-01T23:34:39;6.20;99.90
43087;DHT22;28708;52.224;6.924;2023-04-01T23:37:09;6.20;99.90
43087;DHT22;28708;52.224;6.924;2023-04-01T23:39:40;6.20;99.90
43087;DHT22;28708;52.224;6.924;2023-04-01T23:42:23;6.20;99.90
43087;DHT22;28708;52.224;6.924;2023-04-01T23:44:51;6.20;99.90
43087;DHT22;28708;52.224;6.924;2023-04-01T23:47:22;6.20;99.90
43087;DHT22;28708;52.224;6.924;2023-04-01T23:50:03;6.30;99.90
43087;DHT22;28708;52.224;6.924;2023-04-01T23:52:39;6.20;99.90
43087;DHT22;28708;52.224;6.924;2023-04-01T23:57:39;6.20;99.90
